<?xml version="1.0" encoding="UTF-8" standalone="no" ?>
<gpx xmlns="http://www.topografix.com/GPX/1/1" xmlns:xsi="http://www.w3.org/2001/XMLSchema-instance" xsi:schemaLocation="http://www.topografix.com/GPX/1/1 http://www.topografix.com/GPX/1/1/gpx.xsd" version="1.1" creator="VisuGPX - https://www.visugpx.com">
  <metadata>
    <name>Ogeu de beaux singles</name>
    <desc><![CDATA[regroupement de différentes traces, sympa par temps plutôt assez sec]]></desc>
  </metadata>
  <trk>
    <name><![CDATA[Ogeu de beaux singles_5]]></name>
    <trkseg>
      <trkpt lat="43.1219" lon="-0.50309">
        <ele>329.39</ele>
        <time>2021-08-29T10:53:57Z</time>
      </trkpt>
      <trkpt lat="43.12183" lon="-0.50306">
        <ele>328.91</ele>
        <time>2021-08-29T10:53:58Z</time>
      </trkpt>
      <trkpt lat="43.12176" lon="-0.50302">
        <ele>328.43</ele>
        <time>2021-08-29T10:53:59Z</time>
      </trkpt>
      <trkpt lat="43.1217" lon="-0.50296">
        <ele>327.95</ele>
        <time>2021-08-29T10:54:00Z</time>
      </trkpt>
      <trkpt lat="43.12165" lon="-0.50289">
        <ele>327.95</ele>
        <time>2021-08-29T10:54:01Z</time>
      </trkpt>
      <trkpt lat="43.1216" lon="-0.50282">
        <ele>327.95</ele>
        <time>2021-08-29T10:54:02Z</time>
      </trkpt>
      <trkpt lat="43.12156" lon="-0.50274">
        <ele>327.47</ele>
        <time>2021-08-29T10:54:03Z</time>
      </trkpt>
      <trkpt lat="43.12153" lon="-0.50265">
        <ele>327.47</ele>
        <time>2021-08-29T10:54:04Z</time>
      </trkpt>
      <trkpt lat="43.12151" lon="-0.50257">
        <ele>327.47</ele>
        <time>2021-08-29T10:54:05Z</time>
      </trkpt>
      <trkpt lat="43.12141" lon="-0.5019">
        <ele>328.91</ele>
        <time>2021-08-29T10:54:13Z</time>
      </trkpt>
      <trkpt lat="43.12142" lon="-0.50172">
        <ele>329.39</ele>
        <time>2021-08-29T10:54:15Z</time>
      </trkpt>
      <trkpt lat="43.12143" lon="-0.50166">
        <ele>329.39</ele>
        <time>2021-08-29T10:54:16Z</time>
      </trkpt>
      <trkpt lat="43.12145" lon="-0.50159">
        <ele>329.39</ele>
        <time>2021-08-29T10:54:17Z</time>
      </trkpt>
      <trkpt lat="43.12148" lon="-0.50152">
        <ele>329.39</ele>
        <time>2021-08-29T10:54:18Z</time>
      </trkpt>
      <trkpt lat="43.12153" lon="-0.50146">
        <ele>329.39</ele>
        <time>2021-08-29T10:54:19Z</time>
      </trkpt>
      <trkpt lat="43.12158" lon="-0.5014">
        <ele>329.39</ele>
        <time>2021-08-29T10:54:20Z</time>
      </trkpt>
      <trkpt lat="43.12163" lon="-0.50136">
        <ele>329.39</ele>
        <time>2021-08-29T10:54:21Z</time>
      </trkpt>
      <trkpt lat="43.12168" lon="-0.50132">
        <ele>329.39</ele>
        <time>2021-08-29T10:54:22Z</time>
      </trkpt>
      <trkpt lat="43.12174" lon="-0.5013">
        <ele>329.39</ele>
        <time>2021-08-29T10:54:23Z</time>
      </trkpt>
      <trkpt lat="43.12179" lon="-0.50128">
        <ele>330.35</ele>
        <time>2021-08-29T10:54:24Z</time>
      </trkpt>
      <trkpt lat="43.122" lon="-0.50119">
        <ele>331.31</ele>
        <time>2021-08-29T10:54:28Z</time>
      </trkpt>
      <trkpt lat="43.12204" lon="-0.50116">
        <ele>331.31</ele>
        <time>2021-08-29T10:54:29Z</time>
      </trkpt>
      <trkpt lat="43.12209" lon="-0.50112">
        <ele>331.79</ele>
        <time>2021-08-29T10:54:30Z</time>
      </trkpt>
      <trkpt lat="43.12215" lon="-0.50104">
        <ele>332.27</ele>
        <time>2021-08-29T10:54:32Z</time>
      </trkpt>
      <trkpt lat="43.12245" lon="-0.50057">
        <ele>333.23</ele>
        <time>2021-08-29T10:54:42Z</time>
      </trkpt>
      <trkpt lat="43.12248" lon="-0.5005">
        <ele>333.23</ele>
        <time>2021-08-29T10:54:43Z</time>
      </trkpt>
      <trkpt lat="43.12259" lon="-0.50007">
        <ele>331.79</ele>
        <time>2021-08-29T10:54:49Z</time>
      </trkpt>
      <trkpt lat="43.12272" lon="-0.4993">
        <ele>331.31</ele>
        <time>2021-08-29T10:54:58Z</time>
      </trkpt>
      <trkpt lat="43.12271" lon="-0.49919">
        <ele>330.83</ele>
        <time>2021-08-29T10:54:59Z</time>
      </trkpt>
      <trkpt lat="43.12269" lon="-0.4991">
        <ele>330.35</ele>
        <time>2021-08-29T10:55:00Z</time>
      </trkpt>
      <trkpt lat="43.12266" lon="-0.49901">
        <ele>330.35</ele>
        <time>2021-08-29T10:55:01Z</time>
      </trkpt>
      <trkpt lat="43.12261" lon="-0.49894">
        <ele>330.35</ele>
        <time>2021-08-29T10:55:02Z</time>
      </trkpt>
      <trkpt lat="43.12256" lon="-0.49888">
        <ele>330.35</ele>
        <time>2021-08-29T10:55:03Z</time>
      </trkpt>
      <trkpt lat="43.12249" lon="-0.49885">
        <ele>329.87</ele>
        <time>2021-08-29T10:55:04Z</time>
      </trkpt>
      <trkpt lat="43.12241" lon="-0.49883">
        <ele>329.39</ele>
        <time>2021-08-29T10:55:05Z</time>
      </trkpt>
      <trkpt lat="43.12234" lon="-0.49883">
        <ele>329.39</ele>
        <time>2021-08-29T10:55:06Z</time>
      </trkpt>
      <trkpt lat="43.12227" lon="-0.49884">
        <ele>329.39</ele>
        <time>2021-08-29T10:55:07Z</time>
      </trkpt>
      <trkpt lat="43.1222" lon="-0.49885">
        <ele>328.91</ele>
        <time>2021-08-29T10:55:08Z</time>
      </trkpt>
      <trkpt lat="43.12206" lon="-0.49885">
        <ele>328.43</ele>
        <time>2021-08-29T10:55:10Z</time>
      </trkpt>
      <trkpt lat="43.12199" lon="-0.49883">
        <ele>328.43</ele>
        <time>2021-08-29T10:55:11Z</time>
      </trkpt>
      <trkpt lat="43.12192" lon="-0.49879">
        <ele>328.43</ele>
        <time>2021-08-29T10:55:12Z</time>
      </trkpt>
      <trkpt lat="43.12187" lon="-0.49873">
        <ele>328.43</ele>
        <time>2021-08-29T10:55:13Z</time>
      </trkpt>
      <trkpt lat="43.12183" lon="-0.49865">
        <ele>327.95</ele>
        <time>2021-08-29T10:55:14Z</time>
      </trkpt>
      <trkpt lat="43.1218" lon="-0.49855">
        <ele>327.95</ele>
        <time>2021-08-29T10:55:15Z</time>
      </trkpt>
      <trkpt lat="43.1218" lon="-0.49846">
        <ele>327.47</ele>
        <time>2021-08-29T10:55:16Z</time>
      </trkpt>
      <trkpt lat="43.12182" lon="-0.49836">
        <ele>327.47</ele>
        <time>2021-08-29T10:55:17Z</time>
      </trkpt>
      <trkpt lat="43.12186" lon="-0.49828">
        <ele>327.47</ele>
        <time>2021-08-29T10:55:18Z</time>
      </trkpt>
      <trkpt lat="43.1219" lon="-0.49821">
        <ele>327.47</ele>
        <time>2021-08-29T10:55:19Z</time>
      </trkpt>
      <trkpt lat="43.12195" lon="-0.49814">
        <ele>327.47</ele>
        <time>2021-08-29T10:55:20Z</time>
      </trkpt>
      <trkpt lat="43.12208" lon="-0.49794">
        <ele>328.91</ele>
        <time>2021-08-29T10:55:23Z</time>
      </trkpt>
      <trkpt lat="43.12212" lon="-0.49787">
        <ele>328.91</ele>
        <time>2021-08-29T10:55:24Z</time>
      </trkpt>
      <trkpt lat="43.12215" lon="-0.4978">
        <ele>329.39</ele>
        <time>2021-08-29T10:55:25Z</time>
      </trkpt>
      <trkpt lat="43.12217" lon="-0.49771">
        <ele>329.39</ele>
        <time>2021-08-29T10:55:26Z</time>
      </trkpt>
      <trkpt lat="43.12219" lon="-0.49764">
        <ele>329.39</ele>
        <time>2021-08-29T10:55:27Z</time>
      </trkpt>
      <trkpt lat="43.1222" lon="-0.49757">
        <ele>329.87</ele>
        <time>2021-08-29T10:55:28Z</time>
      </trkpt>
      <trkpt lat="43.12221" lon="-0.49748">
        <ele>329.87</ele>
        <time>2021-08-29T10:55:29Z</time>
      </trkpt>
      <trkpt lat="43.12222" lon="-0.49742">
        <ele>329.87</ele>
        <time>2021-08-29T10:55:30Z</time>
      </trkpt>
      <trkpt lat="43.12222" lon="-0.49734">
        <ele>330.35</ele>
        <time>2021-08-29T10:55:31Z</time>
      </trkpt>
      <trkpt lat="43.12219" lon="-0.49713">
        <ele>330.83</ele>
        <time>2021-08-29T10:55:34Z</time>
      </trkpt>
      <trkpt lat="43.12213" lon="-0.49694">
        <ele>330.83</ele>
        <time>2021-08-29T10:55:37Z</time>
      </trkpt>
      <trkpt lat="43.1221" lon="-0.49689">
        <ele>330.83</ele>
        <time>2021-08-29T10:55:38Z</time>
      </trkpt>
      <trkpt lat="43.1217" lon="-0.4964">
        <ele>333.23</ele>
        <time>2021-08-29T10:55:52Z</time>
      </trkpt>
      <trkpt lat="43.12168" lon="-0.49639">
        <ele>333.23</ele>
        <time>2021-08-29T10:55:53Z</time>
      </trkpt>
      <trkpt lat="43.12166" lon="-0.49638">
        <ele>333.71</ele>
        <time>2021-08-29T10:55:58Z</time>
      </trkpt>
      <trkpt lat="43.12165" lon="-0.49637">
        <ele>333.71</ele>
        <time>2021-08-29T10:55:59Z</time>
      </trkpt>
      <trkpt lat="43.12164" lon="-0.49634">
        <ele>333.71</ele>
        <time>2021-08-29T10:56:00Z</time>
      </trkpt>
      <trkpt lat="43.12165" lon="-0.49632">
        <ele>333.71</ele>
        <time>2021-08-29T10:56:01Z</time>
      </trkpt>
      <trkpt lat="43.12166" lon="-0.49631">
        <ele>333.71</ele>
        <time>2021-08-29T10:56:02Z</time>
      </trkpt>
      <trkpt lat="43.12167" lon="-0.49631">
        <ele>333.71</ele>
        <time>2021-08-29T10:56:03Z</time>
      </trkpt>
      <trkpt lat="43.12168" lon="-0.49631">
        <ele>333.71</ele>
        <time>2021-08-29T10:56:04Z</time>
      </trkpt>
      <trkpt lat="43.12169" lon="-0.4963">
        <ele>333.23</ele>
        <time>2021-08-29T10:56:05Z</time>
      </trkpt>
      <trkpt lat="43.12171" lon="-0.49629">
        <ele>333.23</ele>
        <time>2021-08-29T10:56:06Z</time>
      </trkpt>
      <trkpt lat="43.12172" lon="-0.49628">
        <ele>333.23</ele>
        <time>2021-08-29T10:56:07Z</time>
      </trkpt>
      <trkpt lat="43.12174" lon="-0.49625">
        <ele>333.23</ele>
        <time>2021-08-29T10:56:08Z</time>
      </trkpt>
      <trkpt lat="43.12177" lon="-0.49622">
        <ele>331.79</ele>
        <time>2021-08-29T10:56:09Z</time>
      </trkpt>
      <trkpt lat="43.12188" lon="-0.49608">
        <ele>328.91</ele>
        <time>2021-08-29T10:56:12Z</time>
      </trkpt>
      <trkpt lat="43.12194" lon="-0.49599">
        <ele>328.43</ele>
        <time>2021-08-29T10:56:14Z</time>
      </trkpt>
      <trkpt lat="43.12197" lon="-0.4959">
        <ele>326.99</ele>
        <time>2021-08-29T10:56:16Z</time>
      </trkpt>
      <trkpt lat="43.12203" lon="-0.49583">
        <ele>323.62</ele>
        <time>2021-08-29T10:56:22Z</time>
      </trkpt>
      <trkpt lat="43.12211" lon="-0.49589">
        <ele>321.7</ele>
        <time>2021-08-29T10:56:24Z</time>
      </trkpt>
      <trkpt lat="43.12224" lon="-0.49596">
        <ele>317.85</ele>
        <time>2021-08-29T10:56:27Z</time>
      </trkpt>
      <trkpt lat="43.12252" lon="-0.49619">
        <ele>313.05</ele>
        <time>2021-08-29T10:56:32Z</time>
      </trkpt>
      <trkpt lat="43.12268" lon="-0.49639">
        <ele>310.16</ele>
        <time>2021-08-29T10:56:36Z</time>
      </trkpt>
      <trkpt lat="43.12277" lon="-0.49647">
        <ele>308.72</ele>
        <time>2021-08-29T10:56:39Z</time>
      </trkpt>
      <trkpt lat="43.1228" lon="-0.49644">
        <ele>308.72</ele>
        <time>2021-08-29T10:56:41Z</time>
      </trkpt>
      <trkpt lat="43.12282" lon="-0.49642">
        <ele>308.24</ele>
        <time>2021-08-29T10:56:42Z</time>
      </trkpt>
      <trkpt lat="43.12304" lon="-0.49609">
        <ele>307.76</ele>
        <time>2021-08-29T10:56:53Z</time>
      </trkpt>
      <trkpt lat="43.12306" lon="-0.49609">
        <ele>307.76</ele>
        <time>2021-08-29T10:56:54Z</time>
      </trkpt>
      <trkpt lat="43.12315" lon="-0.49614">
        <ele>309.2</ele>
        <time>2021-08-29T10:56:59Z</time>
      </trkpt>
      <trkpt lat="43.12331" lon="-0.49611">
        <ele>311.6</ele>
        <time>2021-08-29T10:57:07Z</time>
      </trkpt>
      <trkpt lat="43.12348" lon="-0.49619">
        <ele>315.93</ele>
        <time>2021-08-29T10:57:18Z</time>
      </trkpt>
      <trkpt lat="43.12356" lon="-0.49617">
        <ele>316.89</ele>
        <time>2021-08-29T10:57:23Z</time>
      </trkpt>
      <trkpt lat="43.12379" lon="-0.49641">
        <ele>317.37</ele>
        <time>2021-08-29T10:57:34Z</time>
      </trkpt>
      <trkpt lat="43.12406" lon="-0.49686">
        <ele>316.89</ele>
        <time>2021-08-29T10:57:45Z</time>
      </trkpt>
      <trkpt lat="43.12421" lon="-0.49714">
        <ele>315.93</ele>
        <time>2021-08-29T10:57:51Z</time>
      </trkpt>
      <trkpt lat="43.1244" lon="-0.49755">
        <ele>315.45</ele>
        <time>2021-08-29T10:57:58Z</time>
      </trkpt>
      <trkpt lat="43.12452" lon="-0.49771">
        <ele>315.45</ele>
        <time>2021-08-29T10:58:02Z</time>
      </trkpt>
      <trkpt lat="43.12482" lon="-0.498">
        <ele>312.57</ele>
        <time>2021-08-29T10:58:11Z</time>
      </trkpt>
      <trkpt lat="43.12487" lon="-0.4982">
        <ele>312.57</ele>
        <time>2021-08-29T10:58:16Z</time>
      </trkpt>
      <trkpt lat="43.12482" lon="-0.49831">
        <ele>312.57</ele>
        <time>2021-08-29T10:58:20Z</time>
      </trkpt>
      <trkpt lat="43.1248" lon="-0.4984">
        <ele>314.01</ele>
        <time>2021-08-29T10:58:23Z</time>
      </trkpt>
      <trkpt lat="43.12483" lon="-0.49858">
        <ele>315.93</ele>
        <time>2021-08-29T10:58:28Z</time>
      </trkpt>
      <trkpt lat="43.12488" lon="-0.49867">
        <ele>315.93</ele>
        <time>2021-08-29T10:58:31Z</time>
      </trkpt>
      <trkpt lat="43.12494" lon="-0.49878">
        <ele>315.93</ele>
        <time>2021-08-29T10:58:35Z</time>
      </trkpt>
      <trkpt lat="43.12493" lon="-0.49889">
        <ele>316.41</ele>
        <time>2021-08-29T10:58:40Z</time>
      </trkpt>
      <trkpt lat="43.12489" lon="-0.49905">
        <ele>315.45</ele>
        <time>2021-08-29T10:58:45Z</time>
      </trkpt>
      <trkpt lat="43.12478" lon="-0.49927">
        <ele>314.49</ele>
        <time>2021-08-29T10:58:54Z</time>
      </trkpt>
      <trkpt lat="43.12478" lon="-0.49931">
        <ele>314.49</ele>
        <time>2021-08-29T10:58:55Z</time>
      </trkpt>
      <trkpt lat="43.12473" lon="-0.49974">
        <ele>313.05</ele>
        <time>2021-08-29T10:59:05Z</time>
      </trkpt>
      <trkpt lat="43.12469" lon="-0.50012">
        <ele>313.05</ele>
        <time>2021-08-29T10:59:12Z</time>
      </trkpt>
      <trkpt lat="43.12468" lon="-0.5005">
        <ele>313.05</ele>
        <time>2021-08-29T10:59:18Z</time>
      </trkpt>
      <trkpt lat="43.12458" lon="-0.50075">
        <ele>313.05</ele>
        <time>2021-08-29T10:59:26Z</time>
      </trkpt>
      <trkpt lat="43.12452" lon="-0.50083">
        <ele>313.05</ele>
        <time>2021-08-29T10:59:30Z</time>
      </trkpt>
      <trkpt lat="43.12448" lon="-0.50095">
        <ele>312.09</ele>
        <time>2021-08-29T11:05:20Z</time>
      </trkpt>
      <trkpt lat="43.12448" lon="-0.50095">
        <ele>312.09</ele>
        <time>2021-08-29T11:05:20Z</time>
      </trkpt>
      <trkpt lat="43.12449" lon="-0.50111">
        <ele>312.09</ele>
        <time>2021-08-29T11:05:28Z</time>
      </trkpt>
      <trkpt lat="43.12448" lon="-0.50115">
        <ele>311.6</ele>
        <time>2021-08-29T11:05:29Z</time>
      </trkpt>
      <trkpt lat="43.12449" lon="-0.50132">
        <ele>312.09</ele>
        <time>2021-08-29T11:05:33Z</time>
      </trkpt>
      <trkpt lat="43.12434" lon="-0.50177">
        <ele>310.64</ele>
        <time>2021-08-29T11:05:43Z</time>
      </trkpt>
      <trkpt lat="43.12431" lon="-0.50234">
        <ele>308.72</ele>
        <time>2021-08-29T11:05:53Z</time>
      </trkpt>
      <trkpt lat="43.1245" lon="-0.50249">
        <ele>310.16</ele>
        <time>2021-08-29T11:06:01Z</time>
      </trkpt>
      <trkpt lat="43.12458" lon="-0.50269">
        <ele>310.16</ele>
        <time>2021-08-29T11:06:05Z</time>
      </trkpt>
      <trkpt lat="43.1246" lon="-0.50291">
        <ele>310.16</ele>
        <time>2021-08-29T11:06:09Z</time>
      </trkpt>
      <trkpt lat="43.12474" lon="-0.50311">
        <ele>310.16</ele>
        <time>2021-08-29T11:06:14Z</time>
      </trkpt>
      <trkpt lat="43.12481" lon="-0.50335">
        <ele>309.68</ele>
        <time>2021-08-29T11:06:18Z</time>
      </trkpt>
      <trkpt lat="43.1249" lon="-0.50357">
        <ele>308.72</ele>
        <time>2021-08-29T11:06:22Z</time>
      </trkpt>
      <trkpt lat="43.12496" lon="-0.50366">
        <ele>308.72</ele>
        <time>2021-08-29T11:06:24Z</time>
      </trkpt>
      <trkpt lat="43.12513" lon="-0.50402">
        <ele>307.28</ele>
        <time>2021-08-29T11:06:32Z</time>
      </trkpt>
      <trkpt lat="43.12523" lon="-0.50438">
        <ele>305.36</ele>
        <time>2021-08-29T11:06:38Z</time>
      </trkpt>
      <trkpt lat="43.12555" lon="-0.50457">
        <ele>305.36</ele>
        <time>2021-08-29T11:06:47Z</time>
      </trkpt>
      <trkpt lat="43.1256" lon="-0.5047">
        <ele>304.88</ele>
        <time>2021-08-29T11:06:52Z</time>
      </trkpt>
      <trkpt lat="43.12564" lon="-0.50476">
        <ele>301.99</ele>
        <time>2021-08-29T11:06:56Z</time>
      </trkpt>
      <trkpt lat="43.12569" lon="-0.50475">
        <ele>301.03</ele>
        <time>2021-08-29T11:07:00Z</time>
      </trkpt>
      <trkpt lat="43.12573" lon="-0.50472">
        <ele>301.03</ele>
        <time>2021-08-29T11:07:04Z</time>
      </trkpt>
      <trkpt lat="43.12575" lon="-0.5047">
        <ele>302.47</ele>
        <time>2021-08-29T11:07:06Z</time>
      </trkpt>
      <trkpt lat="43.12577" lon="-0.50474">
        <ele>303.43</ele>
        <time>2021-08-29T11:07:09Z</time>
      </trkpt>
      <trkpt lat="43.12577" lon="-0.50477">
        <ele>303.43</ele>
        <time>2021-08-29T11:07:11Z</time>
      </trkpt>
      <trkpt lat="43.12589" lon="-0.50489">
        <ele>306.8</ele>
        <time>2021-08-29T11:07:26Z</time>
      </trkpt>
      <trkpt lat="43.12599" lon="-0.505">
        <ele>310.16</ele>
        <time>2021-08-29T11:07:39Z</time>
      </trkpt>
      <trkpt lat="43.12604" lon="-0.5051">
        <ele>311.6</ele>
        <time>2021-08-29T11:07:55Z</time>
      </trkpt>
      <trkpt lat="43.12604" lon="-0.50514">
        <ele>311.6</ele>
        <time>2021-08-29T11:08:01Z</time>
      </trkpt>
      <trkpt lat="43.12614" lon="-0.50525">
        <ele>314.97</ele>
        <time>2021-08-29T11:08:11Z</time>
      </trkpt>
      <trkpt lat="43.12617" lon="-0.50526">
        <ele>315.93</ele>
        <time>2021-08-29T11:08:14Z</time>
      </trkpt>
      <trkpt lat="43.12625" lon="-0.50527">
        <ele>317.37</ele>
        <time>2021-08-29T11:08:20Z</time>
      </trkpt>
      <trkpt lat="43.12631" lon="-0.50528">
        <ele>317.85</ele>
        <time>2021-08-29T11:08:24Z</time>
      </trkpt>
      <trkpt lat="43.12645" lon="-0.5052">
        <ele>320.74</ele>
        <time>2021-08-29T11:08:37Z</time>
      </trkpt>
      <trkpt lat="43.12647" lon="-0.50517">
        <ele>320.74</ele>
        <time>2021-08-29T11:08:39Z</time>
      </trkpt>
      <trkpt lat="43.12656" lon="-0.50508">
        <ele>321.7</ele>
        <time>2021-08-29T11:08:45Z</time>
      </trkpt>
      <trkpt lat="43.1266" lon="-0.50507">
        <ele>322.18</ele>
        <time>2021-08-29T11:08:47Z</time>
      </trkpt>
      <trkpt lat="43.12685" lon="-0.50512">
        <ele>323.62</ele>
        <time>2021-08-29T11:09:02Z</time>
      </trkpt>
      <trkpt lat="43.12706" lon="-0.50506">
        <ele>325.54</ele>
        <time>2021-08-29T11:09:16Z</time>
      </trkpt>
      <trkpt lat="43.1273" lon="-0.50501">
        <ele>328.91</ele>
        <time>2021-08-29T11:09:32Z</time>
      </trkpt>
      <trkpt lat="43.12752" lon="-0.50499">
        <ele>330.83</ele>
        <time>2021-08-29T11:09:47Z</time>
      </trkpt>
      <trkpt lat="43.12776" lon="-0.50497">
        <ele>333.71</ele>
        <time>2021-08-29T11:10:02Z</time>
      </trkpt>
      <trkpt lat="43.12801" lon="-0.50499">
        <ele>336.6</ele>
        <time>2021-08-29T11:10:19Z</time>
      </trkpt>
      <trkpt lat="43.12819" lon="-0.50504">
        <ele>339</ele>
        <time>2021-08-29T11:10:32Z</time>
      </trkpt>
      <trkpt lat="43.12838" lon="-0.5052">
        <ele>340.92</ele>
        <time>2021-08-29T11:10:47Z</time>
      </trkpt>
      <trkpt lat="43.12861" lon="-0.50545">
        <ele>343.33</ele>
        <time>2021-08-29T11:11:04Z</time>
      </trkpt>
      <trkpt lat="43.12873" lon="-0.50562">
        <ele>344.77</ele>
        <time>2021-08-29T11:11:15Z</time>
      </trkpt>
      <trkpt lat="43.12891" lon="-0.50584">
        <ele>348.13</ele>
        <time>2021-08-29T11:11:32Z</time>
      </trkpt>
      <trkpt lat="43.12905" lon="-0.50613">
        <ele>351.02</ele>
        <time>2021-08-29T11:11:49Z</time>
      </trkpt>
      <trkpt lat="43.12923" lon="-0.50644">
        <ele>352.46</ele>
        <time>2021-08-29T11:12:05Z</time>
      </trkpt>
      <trkpt lat="43.12953" lon="-0.507">
        <ele>350.54</ele>
        <time>2021-08-29T11:12:21Z</time>
      </trkpt>
      <trkpt lat="43.1298" lon="-0.50744">
        <ele>347.65</ele>
        <time>2021-08-29T11:12:32Z</time>
      </trkpt>
      <trkpt lat="43.12983" lon="-0.50745">
        <ele>347.65</ele>
        <time>2021-08-29T11:12:33Z</time>
      </trkpt>
      <trkpt lat="43.12985" lon="-0.50744">
        <ele>347.65</ele>
        <time>2021-08-29T11:12:34Z</time>
      </trkpt>
      <trkpt lat="43.12988" lon="-0.50742">
        <ele>347.65</ele>
        <time>2021-08-29T11:12:35Z</time>
      </trkpt>
      <trkpt lat="43.12995" lon="-0.50734">
        <ele>349.1</ele>
        <time>2021-08-29T11:12:38Z</time>
      </trkpt>
      <trkpt lat="43.1304" lon="-0.50693">
        <ele>350.06</ele>
        <time>2021-08-29T11:12:52Z</time>
      </trkpt>
      <trkpt lat="43.13075" lon="-0.50667">
        <ele>352.46</ele>
        <time>2021-08-29T11:13:03Z</time>
      </trkpt>
      <trkpt lat="43.13078" lon="-0.50668">
        <ele>352.46</ele>
        <time>2021-08-29T11:13:04Z</time>
      </trkpt>
    </trkseg>
  </trk>
</gpx>